Detall de PIREP

Printer-friendly versionPDF version

[2013/10/28 10:06:00]
Flight IATA:CT3214
Pilot Number:042
Company ICAO:CAT
Aircraft Type:B738/F
PAX:110
Departing Airport: LEPA
Destination Airport: EKCH
Alternate Airport:EKBI
Online: VATSIM
Route:ISTER UN851 MAKEL N851 GESKA T57 MONAK
Flight Level:F350
No Slew and time accel
No pause
Crash detect
Detect pilot in Cockpit between each 30 and 45 minutes
10:06 Zero fuel Weight: 121805 Lbs, Fuel Weight: 46031 Lbs
10:06 VATSIM:LEPA 280930Z 23005KT 200V340 9999 BKN018 23/20 Q1019 NOSIG
10:06 VATSIM:EKCH 280950Z 18019KT 9000 RA BKN010 12/11 Q0988 TEMPO -RA BKN008
10:06 VOICE CATALONIAN
10:14 Parking Brakes off
10:23 Take-off
10:23 Take off Weight: 166992 Lbs
10:23 Wind: 000º @ 000 Knots Heading: 238º
10:23 POS N39º 33´ 06´´ E002º 43´ 12´´
10:23 Flaps:3 at 172 Knots
10:23 Gear Up: 173 Knots
10:24 Flaps:2 at 172 Knots
10:24 Flaps:1 at 179 Knots
10:25 Flaps:0 at 198 Knots
10:38 Wind:270º@025 Knots Heading: 057º Ground Speed: 475 Knots Altitude 27208 ft
10:44 TOC
10:44 Fuel Weight: 40733 Lb
10:53 Wind:270º@025 Knots Heading: 059º Ground Speed: 472 Knots Altitude 34996 ft
11:08 Wind:270º@025 Knots Heading: 019º Ground Speed: 459 Knots Altitude 34993 ft
11:23 Wind:270º@025 Knots Heading: 015º Ground Speed: 458 Knots Altitude 34996 ft
11:38 Wind:270º@025 Knots Heading: 351º Ground Speed: 447 Knots Altitude 34993 ft
11:53 Wind:270º@025 Knots Heading: 016º Ground Speed: 458 Knots Altitude 34996 ft
12:08 Wind:270º@025 Knots Heading: 002º Ground Speed: 452 Knots Altitude 34993 ft
12:23 Wind:270º@025 Knots Heading: 009º Ground Speed: 454 Knots Altitude 34993 ft
12:38 Wind:270º@025 Knots Heading: 017º Ground Speed: 458 Knots Altitude 34993 ft
12:45 TOD
12:45 Fuel Weight: 29484 Lb
12:53 Wind:270º@025 Knots Heading: 021º Ground Speed: 378Knots Altitude 22828 ft
13:03 Flaps:1 at 245 Knots
13:05 Flaps:2 at 216 Knots
13:06 Flaps:3 at 195 Knots
13:08 Wind:333º@006 Knots Heading: 039º Ground Speed: 188 Knots Altitude 4288 ft
13:09 Flaps:4 at 180 Knots
13:12 Gear Down: 180 Knots
13:12 Flaps:5 at 180 Knots
13:12 Flaps:6 at 176 Knots
13:12 Flaps:7 at 169 Knots
13:14 Flaps:8 at 143 Knots
13:16 TouchDown:Rate -116 ft/min Speed: 138 Knots
13:16 VATSIM:EKCH 281250Z 19023KT 9999 SCT007 SCT018 BKN070 13/12 Q0983 RERA NOSIG
13:16 Land
13:16 Wind:000º@000 Knots
13:16 Heading: 220º
13:16 Flight Duration: 02:53
13:16 Landing Weight: 149717 Lbs
13:16 POS N55º 36´ 55´´ E012º 39´ 06´´
13:24 Parking brakes on
13:24 Block to Block Duration: 03:10
13:24 Final Fuel: 27125 Lbls
13:24 Spent Fuel: 18906 Lbls
13:24 Flight Length: 1210 NM
13:24 TOD Land Length: 150 NM

Exportar CSV

Powered by Drupal - Modified by Danger4k